Brushvale, Minnesota
Current Conditions -  °F | °C
As of 5:55 AM on Sunday 23 Nov 2014 (Local Time) from KBWP Reporting Station
Overcast Overcast  
Wind Chill: 27°   Ceiling: 10000
Heat Index: 32°   Visibility: 7mi
Dew Point: 32°   Wind: 5mph
Humidity: 100%   Direction: 260°W
Pressure: 29.41"   Gusts: NA
Location:  46.3422°N, 96.4653°W
Report Text: KBWP 231155Z AUTO 26004KT 7SM OVC100 00/00 A2941 RMK AO1
Loading
Personal Weather Stations






























Interactive Weather Map New forecast layout! Learn more

10-Day Weather Forecast

Advertisements
Track Severe Weather on mobile